Chemical Pioneer — KAFO — position and weather

sailwx.info

Track history (hours):
 
Tides and Currents Weather Stations Pressure Air Temp Water Temp Dewpoint Dewpoint Depression Visibility Wind Speed Wind Dir Waves Ship Positions

Chemical Pioneer

Owner: US Shipping Corp, Edison, NJ. More information available from US FCC via Universal Licensing System and Coast Guard Vessel Documentation Center.

Last reported at 2017-Jun-23 04:33 UTC. Time now 2017-Jun-23 12:14 UTC.
Position N 27°07' W 079°56'.

Type: Tanker. MMSI: 366032000.

Date/timePositionNaut miles runAvg speedWind from/ knotsBaromVisibWave heightAir tempDewpointWater temp
2017-Jun-23 04:33N 27°07' W 079°56'118.6
2017-Jun-23 04:31N 27°06' W 079°56'918.5
2017-Jun-23 04:01N 26°57' W 079°56'2017.9
2017-Jun-23 02:54N 26°37' W 079°56'817.1
2017-Jun-23 02:28N 26°30' W 079°57'817.0
2017-Jun-23 02:01N 26°22' W 079°57'918.5
2017-Jun-23 01:31N 26°13' W 079°57'1019.0
2017-Jun-23 01:01N 26°03' W 079°58'1019.2
2017-Jun-23 00:31N 25°54' W 079°58'1019.4
2017-Jun-23 00:00N 25°44' W 079°58'1019.5
2017-Jun-22 23:31N 25°34' W 079°58'1019.5
2017-Jun-22 23:00N 25°25' W 079°59'  
2017-Jun-16 12:34N 29°21' W 094°43'115.1
2017-Jun-16 12:30N 29°21' W 094°44'611.0
2017-Jun-16 12:00N 29°22' W 094°50'3 6.3
2017-Jun-16 11:30N 29°22' W 094°54'1 0.0
2017-Jun-15 04:47N 29°22' W 094°55'0 0.4
2017-Jun-15 04:30N 29°22' W 094°55'2 3.1
2017-Jun-15 04:00N 29°22' W 094°53'4 7.0
2017-Jun-15 03:30N 29°22' W 094°49'7213.3
2017-Jun-14 22:03N 29°36' W 093°27'116.4
2017-Jun-14 22:00N 29°36' W 093°27'1010.3
2017-Jun-14 21:01N 29°44' W 093°20'114.6
2017-Jun-14 20:58N 29°45' W 093°21'4 8.3
2017-Jun-14 20:30N 29°49' W 093°21'4 7.9
2017-Jun-14 20:00N 29°53' W 093°21'4 7.8
2017-Jun-14 19:30N 29°57' W 093°20'4 7.4
2017-Jun-14 19:00N 30°00' W 093°20'3 6.0
2017-Jun-14 18:30N 30°03' W 093°20'3 6.4
2017-Jun-14 18:00N 30°07' W 093°20'3 5.6
2017-Jun-14 17:30N 30°09' W 093°20'2 3.9
2017-Jun-14 17:00N 30°11' W 093°18'2 4.3
2017-Jun-14 16:30N 30°13' W 093°17'1 0.7
2017-Jun-14 15:13N 30°13' W 093°17'0 0.0
2017-Jun-14 14:49N 30°13' W 093°17'0 0.0
2017-Jun-14 13:55N 30°13' W 093°17'0 0.0
2017-Jun-14 12:16N 30°13' W 093°17'0 0.0
2017-Jun-14 11:55N 30°13' W 093°17'0 0.0
2017-Jun-14 11:07N 30°13' W 093°17'0 0.0
2017-Jun-14 10:49N 30°13' W 093°17'0 0.0
2017-Jun-14 10:19N 30°13' W 093°17'0 0.0
2017-Jun-14 09:46N 30°13' W 093°17'0 0.0
2017-Jun-14 08:01N 30°13' W 093°17'0 0.0
2017-Jun-14 07:43N 30°13' W 093°17'0 0.0
2017-Jun-14 04:52N 30°13' W 093°17'0 0.0
2017-Jun-13 22:58N 30°13' W 093°17'0 0.0
2017-Jun-13 21:37N 30°13' W 093°17'0 0.0
2017-Jun-13 15:07N 30°13' W 093°17'0 0.0
2017-Jun-13 14:52N 30°13' W 093°17'  
Track history (hours):
 
Tides and Currents Weather Stations Pressure Air Temp Water Temp Dewpoint Dewpoint Depression Visibility Wind Speed Wind Dir Waves Ship Positions

Chemical Pioneer

Owner: US Shipping Corp, Edison, NJ. More information available from US FCC via Universal Licensing System and Coast Guard Vessel Documentation Center.

Last reported at 2017-Jun-23 04:33 UTC. Time now 2017-Jun-23 12:14 UTC.
Position N 27°07' W 079°56'.

Type: Tanker. MMSI: 366032000.

Date/timePositionNaut miles runAvg speedWind from/ knotsBaromVisibWave heightAir tempDewpointWater temp
2017-Jun-23 04:33N 27°07' W 079°56'118.6
2017-Jun-23 04:31N 27°06' W 079°56'918.5
2017-Jun-23 04:01N 26°57' W 079°56'2017.9
2017-Jun-23 02:54N 26°37' W 079°56'817.1
2017-Jun-23 02:28N 26°30' W 079°57'817.0
2017-Jun-23 02:01N 26°22' W 079°57'918.5
2017-Jun-23 01:31N 26°13' W 079°57'1019.0
2017-Jun-23 01:01N 26°03' W 079°58'1019.2
2017-Jun-23 00:31N 25°54' W 079°58'1019.4
2017-Jun-23 00:00N 25°44' W 079°58'1019.5
2017-Jun-22 23:31N 25°34' W 079°58'1019.5
2017-Jun-22 23:00N 25°25' W 079°59'  
2017-Jun-16 12:34N 29°21' W 094°43'115.1
2017-Jun-16 12:30N 29°21' W 094°44'611.0
2017-Jun-16 12:00N 29°22' W 094°50'3 6.3
2017-Jun-16 11:30N 29°22' W 094°54'1 0.0
2017-Jun-15 04:47N 29°22' W 094°55'0 0.4
2017-Jun-15 04:30N 29°22' W 094°55'2 3.1
2017-Jun-15 04:00N 29°22' W 094°53'4 7.0
2017-Jun-15 03:30N 29°22' W 094°49'7213.3
2017-Jun-14 22:03N 29°36' W 093°27'116.4
2017-Jun-14 22:00N 29°36' W 093°27'1010.3
2017-Jun-14 21:01N 29°44' W 093°20'114.6
2017-Jun-14 20:58N 29°45' W 093°21'4 8.3
2017-Jun-14 20:30N 29°49' W 093°21'4 7.9
2017-Jun-14 20:00N 29°53' W 093°21'4 7.8
2017-Jun-14 19:30N 29°57' W 093°20'4 7.4
2017-Jun-14 19:00N 30°00' W 093°20'3 6.0
2017-Jun-14 18:30N 30°03' W 093°20'3 6.4
2017-Jun-14 18:00N 30°07' W 093°20'3 5.6
2017-Jun-14 17:30N 30°09' W 093°20'2 3.9
2017-Jun-14 17:00N 30°11' W 093°18'2 4.3
2017-Jun-14 16:30N 30°13' W 093°17'1 0.7
2017-Jun-14 15:13N 30°13' W 093°17'0 0.0
2017-Jun-14 14:49N 30°13' W 093°17'0 0.0
2017-Jun-14 13:55N 30°13' W 093°17'0 0.0
2017-Jun-14 12:16N 30°13' W 093°17'0 0.0
2017-Jun-14 11:55N 30°13' W 093°17'0 0.0
2017-Jun-14 11:07N 30°13' W 093°17'0 0.0
2017-Jun-14 10:49N 30°13' W 093°17'0 0.0
2017-Jun-14 10:19N 30°13' W 093°17'0 0.0
2017-Jun-14 09:46N 30°13' W 093°17'0 0.0
2017-Jun-14 08:01N 30°13' W 093°17'0 0.0
2017-Jun-14 07:43N 30°13' W 093°17'0 0.0
2017-Jun-14 04:52N 30°13' W 093°17'0 0.0
2017-Jun-13 22:58N 30°13' W 093°17'0 0.0
2017-Jun-13 21:37N 30°13' W 093°17'0 0.0
2017-Jun-13 15:07N 30°13' W 093°17'0 0.0
2017-Jun-13 14:52N 30°13' W 093°17'  

Dump ship's entire track history